Time;durP1;ratioP1;P1;durP2;ratioP2;P2;SDS_P1;SDS_P2;PMS_P1;PMS_P2;Temp;Humidity;BMP_temperature;BMP_pressure;BME280_temperature;BME280_humidity;BME280_pressure;Samples;Min_cycle;Max_cycle;Signal;HPM_P1;HPM_P2
2022/11/12 00:00:54;;;;;;;6.40;3.75;;;;;;;13.38;53.48;102826.63;4926827;28;98724;-69
2022/11/12 00:03:21;;;;;;;8.07;4.20;;;;;;;13.52;53.02;102823.75;4924654;28;99103;-69
2022/11/12 00:05:49;;;;;;;7.72;4.00;;;;;;;13.56;52.87;102821.03;4929112;28;100746;-71
2022/11/12 00:08:17;;;;;;;9.60;3.63;;;;;;;13.42;52.97;102822.13;4930368;28;97102;-70
2022/11/12 00:10:44;;;;;;;10.07;4.28;;;;;;;13.54;52.98;102825.47;4928974;28;97124;-71
2022/11/12 00:13:11;;;;;;;5.88;4.10;;;;;;;13.64;52.51;102820.91;4926273;28;98968;-71
2022/11/12 00:15:38;;;;;;;9.52;4.40;;;;;;;13.52;52.28;102818.44;4929997;28;98132;-73
2022/11/12 00:18:06;;;;;;;10.48;4.18;;;;;;;13.60;52.53;102821.84;4923115;28;96876;-70
2022/11/12 00:20:34;;;;;;;7.40;3.95;;;;;;;13.42;52.76;102820.34;4922934;28;97477;-70
2022/11/12 00:23:00;;;;;;;6.72;3.55;;;;;;;13.48;52.33;102822.91;4920019;28;99498;-69
2022/11/12 00:25:29;;;;;;;8.52;3.83;;;;;;;13.45;52.50;102822.09;4923993;28;98833;-70
2022/11/12 00:28:02;;;;;;;9.25;3.78;;;;;;;13.41;52.51;102815.06;4931471;28;97885;-70
2022/11/12 00:30:28;;;;;;;7.35;3.97;;;;;;;13.65;52.44;102814.72;4925385;28;97684;-70
2022/11/12 00:32:54;;;;;;;12.57;4.70;;;;;;;13.31;53.73;102821.41;4925228;28;99280;-70
2022/11/12 00:35:21;;;;;;;8.50;3.97;;;;;;;13.21;53.93;102827.72;4926050;28;98915;-69
2022/11/12 00:37:47;;;;;;;8.45;4.20;;;;;;;13.14;54.40;102822.50;4925996;28;99038;-69
2022/11/12 00:40:14;;;;;;;6.85;3.65;;;;;;;12.88;55.47;102823.69;4927467;28;96912;-69
2022/11/12 00:42:42;;;;;;;9.25;4.28;;;;;;;13.12;55.06;102823.41;4928021;28;98684;-69
2022/11/12 00:45:10;;;;;;;7.80;4.57;;;;;;;13.06;55.46;102834.94;4929057;28;101088;-69
2022/11/12 00:47:36;;;;;;;10.07;4.72;;;;;;;12.76;56.26;102830.03;4929771;28;97434;-69
2022/11/12 00:50:03;;;;;;;8.05;4.57;;;;;;;12.84;56.39;102824.63;4929753;28;96845;-69
2022/11/12 00:52:31;;;;;;;9.10;4.68;;;;;;;12.57;57.06;102823.19;4930563;28;99127;-69
2022/11/12 00:54:57;;;;;;;11.32;4.82;;;;;;;12.56;56.97;102826.72;4926412;28;97953;-68
2022/11/12 00:57:23;;;;;;;11.40;4.43;;;;;;;12.78;56.55;102834.44;4928917;28;96962;-70
2022/11/12 00:59:51;;;;;;;8.40;4.53;;;;;;;13.06;55.78;102827.00;4926058;28;99029;-68
2022/11/12 01:02:18;;;;;;;12.20;4.50;;;;;;;12.82;56.30;102832.59;4927477;28;99072;-69
2022/11/12 01:04:45;;;;;;;8.02;4.63;;;;;;;12.69;56.76;102823.03;4928786;28;98939;-68
2022/11/12 01:07:14;;;;;;;7.70;4.13;;;;;;;12.76;56.40;102824.72;4927202;28;96857;-69
2022/11/12 01:09:41;;;;;;;9.65;4.10;;;;;;;12.92;55.95;102822.78;4927018;28;97987;-69
2022/11/12 01:12:08;;;;;;;6.93;3.75;;;;;;;12.83;56.05;102828.19;4925888;28;99023;-70
2022/11/12 01:14:35;;;;;;;9.60;4.10;;;;;;;12.94;55.35;102820.97;4928271;28;98972;-71
2022/11/12 01:17:05;;;;;;;8.93;3.92;;;;;;;12.77;55.35;102823.84;4929470;28;96856;-69
2022/11/12 01:19:31;;;;;;;8.15;4.00;;;;;;;12.72;55.99;102821.25;4927617;28;96955;-68
2022/11/12 01:21:58;;;;;;;8.95;4.20;;;;;;;12.76;55.56;102814.13;4925655;28;99010;-70
2022/11/12 01:24:24;;;;;;;8.93;4.10;;;;;;;12.65;55.72;102814.25;4925982;28;99351;-70
2022/11/12 01:26:51;;;;;;;8.88;3.78;;;;;;;12.72;55.47;102820.38;4926513;28;98430;-69
2022/11/12 01:29:17;;;;;;;11.07;3.95;;;;;;;12.56;55.60;102818.75;4926283;28;96892;-69
2022/11/12 01:31:44;;;;;;;6.85;3.15;;;;;;;12.79;55.43;102822.06;4924951;28;99005;-68
2022/11/12 01:34:11;;;;;;;11.52;3.83;;;;;;;12.46;56.27;102825.06;4926614;28;99202;-70
2022/11/12 01:36:39;;;;;;;9.98;3.70;;;;;;;12.42;56.46;102831.28;4925844;28;96808;-69
2022/11/12 01:39:07;;;;;;;8.90;3.72;;;;;;;12.35;56.57;102825.16;4923474;28;97646;-69
2022/11/12 01:41:39;;;;;;;9.15;4.00;;;;;;;12.26;56.61;102818.19;4925758;28;99596;-69
2022/11/12 01:44:16;;;;;;;5.30;3.28;;;;;;;12.30;56.69;102830.53;4925070;28;98899;-68
2022/11/12 01:46:56;;;;;;;7.03;3.55;;;;;;;12.27;56.42;102833.19;4929470;28;97650;-69
2022/11/12 01:49:28;;;;;;;6.28;3.40;;;;;;;11.98;57.02;102827.28;4928766;28;96818;-69
2022/11/12 01:51:59;;;;;;;8.85;3.10;;;;;;;12.05;56.86;102828.13;4927904;28;99054;-69
2022/11/12 01:54:26;;;;;;;6.10;3.20;;;;;;;11.87;57.42;102830.03;4932503;28;99547;-70
2022/11/12 01:56:57;;;;;;;7.30;3.78;;;;;;;12.03;56.87;102827.22;4931795;28;96714;-69
2022/11/12 01:59:29;;;;;;;9.25;3.28;;;;;;;12.08;56.56;102826.31;4935664;28;98216;-69
2022/11/12 02:01:56;;;;;;;9.93;3.05;;;;;;;12.12;56.90;102836.00;4933749;28;99286;-70
2022/11/12 02:04:26;;;;;;;10.52;3.28;;;;;;;11.99;57.11;102831.69;4932864;28;100532;-69
2022/11/12 02:06:57;;;;;;;9.30;3.75;;;;;;;12.02;57.11;102834.31;4929467;28;96836;-68
2022/11/12 02:09:24;;;;;;;6.10;3.05;;;;;;;12.01;57.02;102827.28;4929969;28;97022;-69
2022/11/12 02:11:50;;;;;;;5.82;2.97;;;;;;;12.16;56.39;102836.84;4931170;28;99294;-69
2022/11/12 02:14:16;;;;;;;7.15;3.45;;;;;;;12.24;56.30;102827.06;4930458;28;100344;-70
2022/11/12 02:16:43;;;;;;;;;;;;;;;12.05;56.55;102828.13;4931235;28;98936;-73
2022/11/12 02:19:12;;;;;;;7.15;3.13;;;;;;;12.20;56.28;102831.50;4928173;28;98722;-69
2022/11/12 02:21:41;;;;;;;7.65;3.60;;;;;;;12.39;55.62;102834.88;4928891;28;99303;-69
2022/11/12 02:24:31;;;;;;;6.57;3.03;;;;;;;12.15;55.98;102840.38;4929671;28;98876;-68
2022/11/12 02:26:58;;;;;;;7.25;3.25;;;;;;;12.33;55.54;102840.22;4934406;28;96897;-69
2022/11/12 02:29:24;;;;;;;8.85;3.28;;;;;;;12.04;55.85;102832.53;4930466;28;96880;-70
2022/11/12 02:31:54;;;;;;;6.35;2.83;;;;;;;12.04;56.06;102839.59;4929231;28;99164;-71
2022/11/12 02:34:20;;;;;;;7.75;3.17;;;;;;;12.20;55.75;102835.94;4929397;28;99234;-68
2022/11/12 02:36:48;;;;;;;7.35;3.00;;;;;;;12.20;55.86;102841.25;4929287;28;96741;-69
2022/11/12 02:39:14;;;;;;;4.30;3.10;;;;;;;11.88;56.29;102845.00;4930446;28;97015;-69
2022/11/12 02:41:41;;;;;;;14.90;3.53;;;;;;;12.35;55.26;102841.06;4931832;28;99078;-70
2022/11/12 02:44:08;;;;;;;5.88;3.30;;;;;;;12.37;55.02;102853.44;4929507;28;98728;-69
2022/11/12 02:46:34;;;;;;;8.35;3.53;;;;;;;12.31;54.93;102845.53;4930594;28;96797;-69
2022/11/12 02:49:01;;;;;;;7.30;3.28;;;;;;;12.24;55.67;102851.78;4931539;28;97049;-70
2022/11/12 02:51:27;;;;;;;4.70;2.95;;;;;;;12.24;55.26;102862.38;4930584;28;99019;-68
2022/11/12 02:53:55;;;;;;;6.10;2.70;;;;;;;12.03;55.66;102859.03;4930182;28;98902;-68
2022/11/12 02:56:21;;;;;;;5.90;3.13;;;;;;;11.98;55.78;102864.38;4931163;28;96779;-68
2022/11/12 02:58:48;;;;;;;7.68;3.08;;;;;;;12.01;55.73;102863.50;4931073;28;96944;-68
2022/11/12 03:01:14;;;;;;;5.20;2.92;;;;;;;11.97;55.77;102870.56;4930832;28;98940;-68
2022/11/12 03:03:41;;;;;;;4.88;2.80;;;;;;;11.83;56.26;102864.47;4929076;28;101055;-68
2022/11/12 03:06:08;;;;;;;7.30;3.38;;;;;;;11.66;56.49;102869.00;4928395;28;98552;-68
2022/11/12 03:08:34;;;;;;;6.97;2.78;;;;;;;11.90;56.06;102869.72;4929904;28;96864;-68
2022/11/12 03:11:08;;;;;;;5.88;3.08;;;;;;;11.77;56.14;102875.13;4930750;28;99764;-68
2022/11/12 03:13:34;;;;;;;6.45;3.05;;;;;;;11.59;56.73;102879.63;4925830;28;98835;-69
2022/11/12 03:16:01;;;;;;;7.18;2.88;;;;;;;11.53;56.88;102882.31;4928360;28;98869;-68
2022/11/12 03:18:27;;;;;;;5.97;2.90;;;;;;;11.62;56.68;102873.41;4929747;28;96868;-69
2022/11/12 03:20:54;;;;;;;5.43;2.78;;;;;;;11.33;57.24;102884.19;4930398;28;99324;-68
2022/11/12 03:23:20;;;;;;;6.75;2.60;;;;;;;11.41;57.29;102885.03;4928469;28;99187;-68
2022/11/12 03:25:47;;;;;;;7.43;3.13;;;;;;;11.36;57.41;102883.25;4928181;28;97300;-69
2022/11/12 03:28:16;;;;;;;5.18;3.15;;;;;;;11.49;56.94;102887.59;4930788;28;97344;-68
2022/11/12 03:30:44;;;;;;;4.80;2.70;;;;;;;11.48;57.00;102886.75;4930582;28;99034;-68
2022/11/12 03:33:13;;;;;;;7.65;3.10;;;;;;;11.42;57.11;102884.13;4926653;28;98986;-70
2022/11/12 03:35:39;;;;;;;4.85;2.58;;;;;;;11.32;57.56;102882.41;4929313;28;97205;-69
2022/11/12 03:38:06;;;;;;;8.60;2.88;;;;;;;11.37;57.30;102885.91;4927906;28;97651;-70
2022/11/12 03:40:34;;;;;;;5.70;2.78;;;;;;;11.56;56.97;102890.22;4930692;28;100798;-69
2022/11/12 03:43:00;;;;;;;4.93;2.53;;;;;;;11.30;57.53;102885.94;4929686;28;98841;-69
2022/11/12 03:45:28;;;;;;;6.53;2.90;;;;;;;11.40;57.05;102879.75;4930988;28;96839;-68
2022/11/12 03:47:56;;;;;;;8.55;3.08;;;;;;;11.41;56.89;102882.38;4930168;28;96914;-68
2022/11/12 03:50:25;;;;;;;7.07;2.72;;;;;;;11.25;57.64;102879.81;4930276;28;96902;-68
2022/11/12 03:52:53;;;;;;;7.93;2.90;;;;;;;11.27;57.49;102884.22;4930642;28;101364;-69
2022/11/12 03:55:24;;;;;;;5.03;2.58;;;;;;;11.25;57.25;102890.38;4928230;28;97305;-69
2022/11/12 03:57:52;;;;;;;7.30;2.70;;;;;;;11.25;57.69;102891.28;4928243;28;97072;-69
2022/11/12 04:00:20;;;;;;;5.90;2.63;;;;;;;11.28;57.42;102885.97;4929405;28;98762;-69
2022/11/12 04:02:48;;;;;;;4.88;2.50;;;;;;;11.25;57.12;102875.38;4928316;28;98532;-69
2022/11/12 04:10:47;;;;;;;4.95;2.53;;;;;;;11.05;57.78;102887.81;4931003;28;98873;-69
2022/11/12 04:13:30;;;;;;;5.43;2.60;;;;;;;11.37;57.61;102893.84;4929322;28;98846;-68
2022/11/12 04:21:53;;;;;;;8.15;3.30;;;;;;;11.56;56.31;102898.16;4927724;28;97685;-68
2022/11/12 04:27:09;;;;;;;6.38;2.70;;;;;;;11.41;56.59;102890.31;4933260;28;96891;-68
2022/11/12 04:32:20;;;;;;;7.03;3.00;;;;;;;11.57;56.30;102889.34;4930656;28;97873;-68
2022/11/12 04:34:49;;;;;;;4.63;2.70;;;;;;;11.47;56.45;102895.59;4931339;28;98824;-70
2022/11/12 04:37:17;;;;;;;6.88;2.55;;;;;;;11.32;56.83;102903.59;4931325;28;97859;-70
2022/11/12 04:39:44;;;;;;;6.78;3.92;;;;;;;11.74;56.40;102901.66;4932305;28;97936;-68
2022/11/12 04:45:02;;;;;;;8.05;3.25;;;;;;;11.50;56.59;102902.63;4932480;28;97854;-68
2022/11/12 04:47:31;;;;;;;4.10;2.63;;;;;;;11.29;56.95;102903.59;4925414;28;97755;-68
2022/11/12 04:49:59;;;;;;;6.53;2.72;;;;;;;11.43;56.77;102900.88;4929133;28;96984;-69
2022/11/12 04:52:26;;;;;;;5.35;2.78;;;;;;;11.08;57.98;102909.00;4930818;28;98547;-69
2022/11/12 04:54:53;;;;;;;7.60;3.20;;;;;;;11.29;56.77;102903.59;4929195;28;99273;-68
2022/11/12 04:57:20;;;;;;;5.53;3.20;;;;;;;11.20;56.89;102908.94;4931379;28;97005;-72
2022/11/12 04:59:47;;;;;;;6.03;3.30;;;;;;;11.32;56.75;102908.00;4928881;28;97710;-72
2022/11/12 05:02:14;;;;;;;6.15;2.72;;;;;;;11.09;57.35;102910.75;4931044;28;99331;-72
2022/11/12 05:04:43;;;;;;;4.32;2.33;;;;;;;11.36;56.75;102905.31;4929282;28;98087;-72
2022/11/12 05:07:11;;;;;;;5.82;3.38;;;;;;;11.23;57.28;102906.25;4932572;28;97061;-72
2022/11/12 05:09:38;;;;;;;6.20;2.65;;;;;;;11.27;56.57;102913.31;4930757;28;97930;-71
2022/11/12 05:12:05;;;;;;;8.25;3.08;;;;;;;11.04;57.09;102917.81;4931979;28;98993;-71
2022/11/12 05:14:31;;;;;;;6.85;2.53;;;;;;;11.13;56.89;102920.44;4931442;28;98894;-73
2022/11/12 05:16:58;;;;;;;7.82;3.03;;;;;;;10.99;57.96;102911.66;4930609;28;97018;-73
2022/11/12 05:19:24;;;;;;;7.80;3.03;;;;;;;10.88;58.56;102924.91;4930591;28;96888;-72
2022/11/12 05:22:06;;;;;;;6.47;2.70;;;;;;;10.97;58.40;102927.53;4931596;28;98898;-72
2022/11/12 05:24:38;;;;;;;5.90;2.72;;;;;;;10.82;58.69;102921.41;4928487;28;98844;-71
2022/11/12 05:27:08;;;;;;;5.53;3.10;;;;;;;10.86;58.43;102925.78;4931794;28;96719;-72
2022/11/12 05:29:34;;;;;;;4.90;2.38;;;;;;;10.78;58.20;102923.16;4927284;28;97530;-71
2022/11/12 05:32:00;;;;;;;8.48;2.85;;;;;;;10.67;58.71;102923.19;4930551;28;101165;-72
2022/11/12 05:34:27;;;;;;;8.00;3.25;;;;;;;10.69;58.37;102920.56;4931343;28;98950;-72
2022/11/12 05:36:54;;;;;;;5.40;2.75;;;;;;;10.84;58.34;102927.56;4932374;28;96966;-72
2022/11/12 05:39:21;;;;;;;7.20;3.05;;;;;;;10.97;57.62;102916.06;4931817;28;97036;-72
2022/11/12 05:41:50;;;;;;;8.02;2.83;;;;;;;10.69;58.24;102926.72;4931262;28;98934;-72
2022/11/12 05:44:16;;;;;;;6.35;2.95;;;;;;;10.91;57.85;102929.31;4930364;28;99130;-71
2022/11/12 05:46:43;;;;;;;6.72;2.72;;;;;;;10.92;57.97;102929.31;4929584;28;97829;-71
2022/11/12 05:49:10;;;;;;;6.60;2.50;;;;;;;10.91;57.97;102924.00;4926945;28;98315;-72
2022/11/12 05:51:36;;;;;;;8.55;2.95;;;;;;;10.85;57.70;102938.13;4931463;28;99052;-72
2022/11/12 05:54:04;;;;;;;7.78;2.90;;;;;;;10.71;57.96;102934.63;4930278;28;100680;-73
2022/11/12 05:56:30;;;;;;;8.15;2.80;;;;;;;10.76;57.86;102933.72;4930863;28;96799;-71
2022/11/12 05:58:58;;;;;;;8.32;3.17;;;;;;;10.75;58.18;102941.69;4931829;28;97274;-74
2022/11/12 06:01:25;;;;;;;7.75;2.85;;;;;;;10.59;58.72;102930.25;4932844;28;99020;-71
2022/11/12 06:03:52;;;;;;;5.53;2.90;;;;;;;10.23;59.45;102928.50;4932249;28;99522;-71
2022/11/12 06:06:18;;;;;;;5.00;2.78;;;;;;;10.44;59.12;102935.53;4936967;28;97030;-72
2022/11/12 06:08:44;;;;;;;7.68;2.83;;;;;;;10.50;59.12;102938.16;4930491;28;97028;-72
2022/11/12 06:11:11;;;;;;;4.53;3.10;;;;;;;10.61;58.72;102932.88;4930826;28;99169;-72
2022/11/12 06:13:38;;;;;;;10.45;3.30;;;;;;;10.33;59.21;102932.91;4920406;28;98912;-72
2022/11/12 06:16:06;;;;;;;5.35;3.13;;;;;;;10.60;59.03;102937.28;4929579;28;96938;-71
2022/11/12 06:18:33;;;;;;;8.70;3.40;;;;;;;10.62;58.91;102937.31;4931042;28;97207;-71
2022/11/12 06:21:19;;;;;;;9.57;3.15;;;;;;;10.58;58.87;102938.16;4928289;28;99188;-71
2022/11/12 06:23:45;;;;;;;7.03;3.50;;;;;;;10.26;59.30;102935.53;4927332;28;98549;-72
2022/11/12 06:26:12;;;;;;;7.13;2.88;;;;;;;10.30;59.66;102934.69;4931238;28;97048;-72
2022/11/12 06:28:39;;;;;;;4.65;3.05;;;;;;;10.50;59.22;102935.53;4930313;28;97696;-71
2022/11/12 06:31:06;;;;;;;4.63;2.90;;;;;;;10.31;59.90;102936.41;4928407;28;99111;-72
2022/11/12 06:33:33;;;;;;;7.38;3.70;;;;;;;10.85;58.20;102942.53;4932732;28;100415;-72
2022/11/12 06:36:02;;;;;;;5.95;3.00;;;;;;;10.62;58.52;102940.81;4931358;28;96785;-72
2022/11/12 06:38:30;;;;;;;6.00;3.20;;;;;;;10.59;58.41;102955.78;4928991;28;96963;-72
2022/11/12 06:40:56;;;;;;;9.88;3.20;;;;;;;10.81;58.09;102962.84;4929149;28;98902;-71
2022/11/12 06:43:23;;;;;;;5.70;3.10;;;;;;;10.79;57.76;102957.53;4930702;28;99656;-72
2022/11/12 06:45:50;;;;;;;7.57;3.22;;;;;;;10.55;59.00;102962.88;4931454;28;98168;-72
2022/11/12 06:48:18;;;;;;;7.70;2.90;;;;;;;10.87;58.13;102964.59;4930325;28;96944;-72
2022/11/12 06:50:44;;;;;;;5.57;3.42;;;;;;;10.97;57.78;102963.66;4930900;28;99273;-73
2022/11/12 06:53:11;;;;;;;9.40;3.50;;;;;;;10.61;58.54;102972.56;4930513;28;97477;-72
2022/11/12 06:55:38;;;;;;;6.32;3.10;;;;;;;10.94;57.94;102979.56;4930377;28;96892;-71
2022/11/12 06:58:05;;;;;;;10.18;3.55;;;;;;;10.87;58.18;102980.47;4925447;28;99062;-73
2022/11/12 07:00:31;;;;;;;10.63;3.90;;;;;;;10.80;58.40;102966.34;4924928;28;99134;-72
2022/11/12 07:02:58;;;;;;;8.15;3.15;;;;;;;10.82;58.58;102975.19;4930775;28;98887;-73
2022/11/12 07:05:25;;;;;;;7.15;2.97;;;;;;;10.93;58.46;102983.97;4927949;28;96913;-72
2022/11/12 07:07:54;;;;;;;5.60;3.33;;;;;;;10.96;58.28;102983.09;4930322;28;96960;-72
2022/11/12 07:10:20;;;;;;;7.78;3.53;;;;;;;11.05;57.82;102989.25;4929372;28;99390;-72
2022/11/12 07:12:47;;;;;;;6.55;3.30;;;;;;;11.12;57.70;102976.88;4930838;28;97646;-72
2022/11/12 07:15:13;;;;;;;12.07;3.65;;;;;;;11.18;57.48;102979.50;4926571;28;96805;-71
2022/11/12 07:17:40;;;;;;;7.88;3.70;;;;;;;11.20;57.75;102983.03;4928068;28;96968;-72
2022/11/12 07:20:08;;;;;;;8.00;3.60;;;;;;;11.25;57.70;102983.00;4931501;28;98931;-72
2022/11/12 07:22:36;;;;;;;7.55;3.72;;;;;;;11.37;57.85;102994.44;4933454;28;99153;-71
2022/11/12 07:25:03;;;;;;;7.53;3.70;;;;;;;11.11;58.60;102994.50;4929876;28;96731;-72
2022/11/12 07:27:30;;;;;;;9.23;3.90;;;;;;;11.46;57.73;102989.13;4929699;28;97672;-72
2022/11/12 07:29:57;;;;;;;5.90;3.33;;;;;;;11.28;58.12;102993.59;4927359;28;99286;-72
2022/11/12 07:32:23;;;;;;;8.73;3.60;;;;;;;11.51;57.83;102994.41;4927193;28;99217;-71
2022/11/12 07:34:52;;;;;;;6.53;3.10;;;;;;;11.38;58.20;103004.16;4925225;28;97281;-70
2022/11/12 07:37:18;;;;;;;10.55;3.50;;;;;;;11.87;56.88;103009.28;4926597;28;97929;-71
2022/11/12 07:39:46;;;;;;;7.07;3.88;;;;;;;11.81;56.88;103006.69;4927111;28;99110;-73
2022/11/12 07:42:13;;;;;;;7.57;3.40;;;;;;;11.89;56.72;102996.91;4927477;28;98876;-71
2022/11/12 07:44:40;;;;;;;7.95;3.83;;;;;;;11.83;57.08;103007.53;4926825;28;97657;-71
2022/11/12 07:47:06;;;;;;;6.05;3.72;;;;;;;12.40;55.43;103013.38;4925929;28;97016;-71
2022/11/12 07:49:32;;;;;;;7.78;3.90;;;;;;;12.52;54.98;103005.34;4923582;28;98875;-72
2022/11/12 07:51:59;;;;;;;6.10;3.47;;;;;;;12.37;55.12;103009.84;4925321;28;99020;-72
2022/11/12 07:54:25;;;;;;;12.73;4.78;;;;;;;12.78;54.37;103009.53;4924316;28;98764;-73
2022/11/12 07:56:53;;;;;;;8.32;3.92;;;;;;;12.86;53.96;103003.28;4926571;28;97928;-72
2022/11/12 07:59:19;;;;;;;8.90;4.35;;;;;;;12.46;55.47;103014.22;4924295;28;99560;-71
2022/11/12 08:01:46;;;;;;;9.50;3.65;;;;;;;12.75;55.01;103006.91;4922462;28;99467;-71
2022/11/12 08:04:12;;;;;;;8.88;4.22;;;;;;;12.50;55.10;103002.69;4925443;28;97210;-71
2022/11/12 08:06:39;;;;;;;8.23;4.30;;;;;;;12.76;54.74;103003.34;4926831;28;97065;-72
2022/11/12 08:09:09;;;;;;;9.20;3.97;;;;;;;12.84;53.86;103011.25;4925391;28;98973;-71
2022/11/12 08:11:36;;;;;;;5.68;3.72;;;;;;;13.23;53.48;103017.09;4930917;28;98925;-72
2022/11/12 08:14:04;;;;;;;6.95;4.28;;;;;;;13.13;52.82;103017.16;4925053;28;97179;-71
2022/11/12 08:16:31;;;;;;;7.88;3.95;;;;;;;13.32;51.54;103011.69;4926253;28;98620;-73
2022/11/12 08:18:58;;;;;;;9.85;4.43;;;;;;;13.29;51.79;103012.59;4925145;28;98809;-72
2022/11/12 08:21:28;;;;;;;8.00;4.30;;;;;;;13.49;51.69;103015.91;4925643;28;98784;-70
2022/11/12 08:23:54;;;;;;;5.80;3.78;;;;;;;13.49;51.30;103015.03;4924112;28;98970;-72
2022/11/12 08:26:21;;;;;;;9.82;4.25;;;;;;;13.49;51.09;103005.28;4925837;28;99242;-71
2022/11/12 08:28:48;;;;;;;8.18;3.88;;;;;;;13.78;51.26;103007.59;4925290;28;99272;-73
2022/11/12 08:31:21;;;;;;;8.65;4.55;;;;;;;13.90;50.44;103012.72;4924931;28;97384;-73
2022/11/12 08:33:55;;;;;;;13.00;4.78;;;;;;;14.38;49.79;103015.59;4922349;28;98972;-74
2022/11/12 08:36:21;;;;;;;14.82;4.75;;;;;;;14.17;49.75;103010.59;4922667;28;97997;-73
2022/11/12 08:38:48;;;;;;;8.20;4.47;;;;;;;14.39;49.33;103001.41;4925422;28;99052;-72
2022/11/12 08:41:16;;;;;;;12.45;4.97;;;;;;;14.10;50.13;103017.78;4920961;28;99441;-71
2022/11/12 08:43:43;;;;;;;12.32;5.47;;;;;;;14.22;49.70;103012.28;4921299;28;99027;-73
2022/11/12 08:46:09;;;;;;;13.40;4.82;;;;;;;14.47;49.38;103022.56;4919229;28;98445;-73
2022/11/12 08:48:40;;;;;;;13.75;6.10;;;;;;;14.37;49.83;103013.81;4920284;28;97813;-72
2022/11/12 08:51:07;;;;;;;11.43;5.13;;;;;;;14.24;49.96;103006.94;4923698;28;98115;-69
2022/11/12 08:53:34;;;;;;;13.23;6.20;;;;;;;14.46;49.66;103002.19;4919753;28;97363;-70
2022/11/12 08:56:06;;;;;;;16.27;6.88;;;;;;;14.73;48.96;103010.59;4922684;28;96967;-72
2022/11/12 08:58:35;;;;;;;11.95;6.00;;;;;;;14.91;48.59;103004.06;4919634;28;100169;-70
2022/11/12 09:01:05;;;;;;;22.63;7.22;;;;;;;14.95;48.68;103004.91;4925162;28;99077;-70
2022/11/12 09:03:32;;;;;;;17.23;6.80;;;;;;;15.13;48.58;103015.22;4927805;28;97218;-70
2022/11/12 09:06:03;;;;;;;13.32;7.35;;;;;;;15.09;48.47;103010.84;4928245;28;97341;-70
2022/11/12 09:08:29;;;;;;;18.05;7.85;;;;;;;15.46;47.92;103006.56;4927803;28;101085;-70
2022/11/12 09:10:58;;;;;;;16.50;7.40;;;;;;;15.62;48.06;103006.28;4928922;28;100900;-70
2022/11/12 09:13:24;;;;;;;26.65;8.65;;;;;;;15.39;48.49;103009.38;4925560;28;98514;-70
2022/11/12 09:15:51;;;;;;;21.20;9.68;;;;;;;15.47;48.71;103015.44;4924356;28;98745;-69
2022/11/12 09:18:18;;;;;;;16.90;8.68;;;;;;;15.89;47.96;103011.00;4921450;28;98812;-70
2022/11/12 09:20:45;;;;;;;22.13;10.43;;;;;;;16.18;47.96;103013.91;4921959;28;98840;-70
2022/11/12 09:23:15;;;;;;;20.00;10.75;;;;;;;15.97;48.61;103021.50;4921049;28;97977;-70
2022/11/12 09:25:42;;;;;;;23.38;10.90;;;;;;;15.93;49.09;103020.72;4924933;28;98864;-70
2022/11/12 09:28:10;;;;;;;23.13;11.20;;;;;;;15.81;50.35;103013.00;4921032;28;101305;-70
2022/11/12 09:30:39;;;;;;;22.27;11.27;;;;;;;15.85;50.41;103009.34;4920646;28;99439;-70
2022/11/12 09:33:06;;;;;;;18.95;9.68;;;;;;;15.80;50.67;103012.13;4920740;28;96914;-70
2022/11/12 09:35:32;;;;;;;26.25;10.40;;;;;;;16.09;49.40;103008.78;4922793;28;99381;-71
2022/11/12 09:37:59;;;;;;;17.55;9.30;;;;;;;16.08;49.41;103016.84;4923671;28;99403;-71
2022/11/12 09:40:41;;;;;;;19.35;10.13;;;;;;;16.23;49.27;103017.34;4924231;28;99131;-71
2022/11/12 09:43:18;;;;;;;20.08;9.55;;;;;;;16.59;48.98;103017.41;4926965;28;96974;-70
2022/11/12 09:45:47;;;;;;;22.55;10.30;;;;;;;16.57;49.28;103006.75;4923030;28;97391;-70
2022/11/12 09:48:20;;;;;;;20.90;10.45;;;;;;;16.52;50.15;103007.78;4925556;28;98930;-70
2022/11/12 09:50:54;;;;;;;18.20;10.07;;;;;;;16.84;49.70;103012.34;4928477;28;99411;-71
2022/11/12 09:53:27;;;;;;;21.65;10.40;;;;;;;17.04;49.52;103010.03;4924912;28;97181;-71
2022/11/12 09:55:55;;;;;;;22.33;9.93;;;;;;;17.06;49.57;103003.75;4925771;28;97241;-72
2022/11/12 09:58:21;;;;;;;14.90;8.35;;;;;;;17.45;49.14;103000.88;4928371;28;99074;-72
2022/11/12 10:00:54;;;;;;;18.80;8.25;;;;;;;17.43;49.27;103008.06;4929737;28;99643;-73
2022/11/12 10:03:31;;;;;;;17.50;8.75;;;;;;;17.64;49.06;103020.84;4926377;28;96821;-73
2022/11/12 10:06:12;;;;;;;20.77;9.05;;;;;;;17.76;48.52;103024.94;4923026;28;98759;-72
2022/11/12 10:08:46;;;;;;;20.98;10.15;;;;;;;17.58;49.01;103012.09;4928155;28;98857;-72
2022/11/12 10:12:30;;;;;;;15.85;8.57;;;;;;;17.54;48.68;102996.13;4924712;28;99365;-73
2022/11/12 10:14:33;;;;;;;18.70;9.43;;;;;;;17.35;49.37;103008.25;4926228;28;98284;-72
2022/11/12 10:17:06;;;;;;;22.50;10.18;;;;;;;17.32;49.44;103007.47;4930611;28;96834;-72
2022/11/12 10:19:46;;;;;;;23.88;10.68;;;;;;;17.31;49.37;103001.25;4924131;28;99259;-73
2022/11/12 10:22:34;;;;;;;22.02;9.10;;;;;;;17.30;49.50;103004.84;4924932;28;98811;-72
2022/11/12 10:25:13;;;;;;;24.65;9.98;;;;;;;17.33;49.60;103010.09;4927056;28;97054;-72
2022/11/12 10:27:42;;;;;;;22.63;9.90;;;;;;;17.19;50.00;103014.09;4924340;28;98693;-73
2022/11/12 10:30:16;;;;;;;22.38;9.57;;;;;;;17.55;49.17;102999.69;4926071;28;99183;-74
2022/11/12 10:32:43;;;;;;;21.83;8.73;;;;;;;17.08;50.12;102998.34;4925577;28;98844;-73
2022/11/12 10:35:11;;;;;;;18.73;10.05;;;;;;;17.47;49.73;103025.75;4929166;28;96835;-74
2022/11/12 10:37:46;;;;;;;25.90;10.82;;;;;;;17.40;49.93;103027.72;4926964;28;97784;-74
2022/11/12 10:40:34;;;;;;;17.52;9.27;;;;;;;17.34;49.83;102985.13;4931523;28;100238;-74
2022/11/12 10:43:04;;;;;;;21.13;9.73;;;;;;;17.56;49.14;103001.44;4927811;28;98505;-75
2022/11/12 10:45:31;;;;;;;23.83;10.60;;;;;;;17.67;49.09;103018.06;4924804;28;97700;-73
2022/11/12 10:47:59;;;;;;;25.38;11.52;;;;;;;18.04;48.22;103019.66;4926984;28;97058;-73
2022/11/12 10:50:30;;;;;;;23.70;11.00;;;;;;;17.90;48.13;102996.88;4926955;28;98936;-73
2022/11/12 10:53:03;;;;;;;21.48;10.35;;;;;;;17.65;48.89;102997.66;4925938;28;99175;-73
2022/11/12 10:55:32;;;;;;;18.92;9.65;;;;;;;17.95;48.61;103009.22;4925006;28;96869;-72
2022/11/12 10:58:19;;;;;;;20.05;9.35;;;;;;;18.07;48.24;103008.84;4928101;28;97023;-75
2022/11/12 11:00:58;;;;;;;20.38;8.73;;;;;;;18.16;47.93;102997.84;4921781;28;99433;-72
2022/11/12 11:03:27;;;;;;;18.80;8.98;;;;;;;18.18;48.13;103009.41;4928732;28;99493;-73
2022/11/12 11:05:58;;;;;;;22.65;9.05;;;;;;;18.38;47.68;102996.22;4925917;28;98668;-73
2022/11/12 11:08:37;;;;;;;22.10;10.65;;;;;;;18.35;47.53;102993.66;4929832;28;97661;-72
2022/11/12 11:11:26;;;;;;;24.08;9.52;;;;;;;18.14;48.11;103011.28;4929817;28;97739;-73
2022/11/12 11:13:55;;;;;;;18.63;8.20;;;;;;;18.37;47.73;103002.53;4929081;28;98894;-72
2022/11/12 11:16:24;;;;;;;17.17;8.35;;;;;;;18.45;47.48;102991.53;4925254;28;98695;-72
2022/11/12 11:18:54;;;;;;;19.17;9.13;;;;;;;18.31;47.65;102995.53;4928686;28;97045;-73
2022/11/12 11:21:51;;;;;;;20.80;9.50;;;;;;;18.47;47.26;103003.97;4925099;28;101983;-73
2022/11/12 11:24:28;;;;;;;22.80;9.48;;;;;;;18.26;47.79;102980.56;4924803;28;102307;-72
2022/11/12 11:27:02;;;;;;;17.77;8.63;;;;;;;18.30;47.80;102980.44;4928307;28;96920;-73
2022/11/12 11:29:45;;;;;;;22.73;8.65;;;;;;;18.09;48.17;102985.59;4926732;28;97946;-73
2022/11/12 11:32:28;;;;;;;21.95;9.10;;;;;;;18.12;47.98;102986.34;4925953;28;98941;-73
2022/11/12 11:35:07;;;;;;;23.88;9.60;;;;;;;18.04;48.44;102967.03;4923429;28;99220;-72
2022/11/12 11:37:46;;;;;;;17.95;8.32;;;;;;;17.93;48.72;102974.47;4924634;28;97213;-75
2022/11/12 11:40:24;;;;;;;19.90;8.15;;;;;;;17.99;48.69;102976.97;4922441;28;97416;-72
2022/11/12 11:43:11;;;;;;;21.20;8.15;;;;;;;17.97;48.67;102976.16;4928755;28;98858;-73
2022/11/12 11:45:55;;;;;;;23.10;8.68;;;;;;;18.03;48.55;102978.63;4924577;28;99007;-73
2022/11/12 11:48:31;;;;;;;19.77;8.88;;;;;;;18.11;48.20;102962.34;4929956;28;96801;-72
2022/11/12 11:51:02;;;;;;;18.20;8.15;;;;;;;18.21;48.40;102955.75;4924416;28;97815;-72